This is the latest recevied weather packets stored in our database for station/object WP3OF-3. If no packets are shown the sender has not sent any weather packets the latest 10 day(s).
| Time | Temp. | Humidity | Pressure | Rain* | Wind** | Luminosity | Snow |
|---|---|---|---|---|---|---|---|
| 1777310144 | 30.56° C | 65% | 1018.1 hPa | 0 mm | - | - | - |
| 1777309842 | 30° C | 67% | 1018.3 hPa | 0 mm | - | - | - |
| 1777309540 | 29.44° C | 67% | 1018.1 hPa | 0 mm | - | - | - |
| 1777309236 | 30° C | 66% | 1018.5 hPa | 0 mm | - | - | - |
| 1777308935 | 30° C | 65% | 1018.5 hPa | 0 mm | - | - | - |
| 1777308630 | 30° C | 65% | 1018.7 hPa | 0 mm | - | - | - |
| 1777308326 | 30° C | 66% | 1018.8 hPa | 0 mm | - | - | - |
| 1777308021 | 30° C | 66% | 1018.6 hPa | 0 mm | - | - | - |
| 1777307720 | 30° C | 64% | 1018.9 hPa | 0 mm | - | - | - |
| 1777307416 | 29.44° C | 69% | 1018.8 hPa | 0 mm | - | - | - |
| 1777307114 | 29.44° C | 66% | 1018.7 hPa | 0 mm | - | - | - |
| 1777306810 | 30° C | 64% | 1018.8 hPa | 0 mm | - | - | - |
| 1777306508 | 29.44° C | 65% | 1018.8 hPa | 0 mm | - | - | - |
| 1777306203 | 29.44° C | 66% | 1019 hPa | 0 mm | - | - | - |
| 1777305898 | 30° C | 64% | 1018.9 hPa | 0 mm | - | - | - |
| 1777305595 | 28.89° C | 67% | 1019.3 hPa | 0 mm | - | - | - |
| 1777305291 | 29.44° C | 66% | 1019.2 hPa | 0 mm | - | - | - |
| 1777304990 | 28.89° C | 67% | 1019.1 hPa | 0 mm | - | - | - |
| 1777304686 | 28.89° C | 66% | 1019.1 hPa | 0 mm | - | - | - |
| 1777304384 | 29.44° C | 66% | 1019.1 hPa | 0 mm | - | - | - |
| 1777304081 | 30° C | 65% | 1019.3 hPa | 0 mm | - | - | - |
| 1777303778 | 28.89° C | 68% | 1019.3 hPa | 0 mm | - | - | - |
| 1777303475 | 28.89° C | 67% | 1019.5 hPa | 0 mm | - | - | - |
| 1777303172 | 28.89° C | 69% | 1019.2 hPa | 0 mm | - | - | - |
| 1777302871 | 28.33° C | 70% | 1019.4 hPa | 0 mm | - | - | - |
* Rain latest hour (hover to see other rain measurements)
** Current wind speed in m/s (hover to see current wind gust speed)